createdAt,value
2023-05-01T00:02:19.067Z,100923.81
2023-05-01T00:04:48.924Z,100924.09
2023-05-01T00:07:18.821Z,100918.75
2023-05-01T00:09:48.520Z,100910.03
2023-05-01T00:12:18.186Z,100905.16
2023-05-01T00:14:47.886Z,100910.47
2023-05-01T00:17:20.674Z,100910.72
2023-05-01T00:19:54.526Z,100912.16
2023-05-01T00:22:24.937Z,100909.00
2023-05-01T00:24:54.543Z,100902.91
2023-05-01T00:27:24.102Z,100907.44
2023-05-01T00:29:54.226Z,100911.34
2023-05-01T00:32:26.885Z,100900.19
2023-05-01T00:34:57.920Z,100895.03
2023-05-01T00:37:27.996Z,100882.31
2023-05-01T00:39:58.347Z,100884.94
2023-05-01T00:42:28.215Z,100889.19
2023-05-01T00:44:58.080Z,100876.47
2023-05-01T00:47:30.704Z,100878.56
2023-05-01T00:50:00.552Z,100866.59
2023-05-01T00:52:30.492Z,100866.94
2023-05-01T00:55:01.033Z,100856.63
2023-05-01T00:57:31.168Z,100862.75
2023-05-01T01:00:01.328Z,100861.94
2023-05-01T01:02:34.612Z,100855.63
2023-05-01T01:05:07.342Z,100847.72
2023-05-01T01:07:44.581Z,100852.44
2023-05-01T01:10:22.702Z,100847.91
2023-05-01T01:13:01.516Z,100845.06
2023-05-01T01:15:39.935Z,100851.47
2023-05-01T01:18:19.788Z,100843.28
2023-05-01T01:20:58.255Z,100838.97
2023-05-01T01:23:45.964Z,100832.34
2023-05-01T01:26:31.468Z,100825.06
2023-05-01T01:29:32.886Z,100833.50
2023-05-01T01:32:12.223Z,100825.31
2023-05-01T01:34:50.515Z,100822.69
2023-05-01T01:37:25.448Z,100819.91
2023-05-01T01:39:58.552Z,100826.38
2023-05-01T01:42:33.668Z,100818.03
2023-05-01T01:45:10.921Z,100811.19
2023-05-01T01:47:45.256Z,100812.69
2023-05-01T01:50:19.917Z,100812.00
2023-05-01T01:52:52.838Z,100812.28
2023-05-01T01:55:28.229Z,100801.16
2023-05-01T01:57:59.430Z,100801.50
2023-05-01T02:00:31.370Z,100793.25
2023-05-01T02:03:03.136Z,100794.13
2023-05-01T02:05:36.870Z,100795.53
2023-05-01T02:08:08.129Z,100790.75
2023-05-01T02:10:39.949Z,100789.34
2023-05-01T02:13:09.888Z,100788.91
2023-05-01T02:15:43.242Z,100779.03
2023-05-01T02:18:13.327Z,100782.25
2023-05-01T02:20:45.715Z,100774.78
2023-05-01T02:23:16.162Z,100770.34
2023-05-01T02:25:48.834Z,100762.75
2023-05-01T02:28:24.183Z,100769.97
2023-05-01T02:30:53.956Z,100769.16
2023-05-01T02:33:23.582Z,100758.06
2023-05-01T02:35:55.943Z,100764.63
2023-05-01T02:38:26.204Z,100757.94
2023-05-01T02:40:59.594Z,100762.69
2023-05-01T02:43:31.785Z,100754.56
2023-05-01T02:46:04.902Z,100744.34
2023-05-01T02:48:37.961Z,100748.63
2023-05-01T02:51:10.926Z,100745.16
2023-05-01T02:53:40.901Z,100743.56
2023-05-01T02:56:20.999Z,100734.31
2023-05-01T02:58:51.312Z,100742.66
2023-05-01T03:01:20.943Z,100728.34
2023-05-01T03:03:50.737Z,100718.66
2023-05-01T03:06:23.123Z,100714.69
2023-05-01T03:08:53.314Z,100714.22
2023-05-01T03:11:24.616Z,100707.81
2023-05-01T03:13:54.406Z,100710.22
2023-05-01T03:16:24.167Z,100703.59
2023-05-01T03:18:53.827Z,100704.34
2023-05-01T03:21:26.911Z,100701.88
2023-05-01T03:23:57.033Z,100696.25
2023-05-01T03:26:26.948Z,100699.19
2023-05-01T03:28:56.563Z,100697.56
2023-05-01T03:31:26.880Z,100692.88
2023-05-01T03:33:57.424Z,100686.47
2023-05-01T03:36:30.433Z,100677.09
2023-05-01T03:39:00.100Z,100675.81
2023-05-01T03:41:48.303Z,100678.31
2023-05-01T03:44:27.709Z,100668.47
2023-05-01T03:46:57.559Z,100680.09
2023-05-01T03:49:31.148Z,100683.19
2023-05-01T03:52:03.622Z,100681.69
2023-05-01T03:54:33.447Z,100681.47
2023-05-01T03:57:13.412Z,100683.34
2023-05-01T03:59:43.975Z,100674.75
2023-05-01T04:02:16.412Z,100673.69
2023-05-01T04:04:47.777Z,100673.31
2023-05-01T04:07:20.444Z,100661.19
2023-05-01T04:09:52.047Z,100658.19
2023-05-01T04:12:22.164Z,100655.59
2023-05-01T04:14:53.703Z,100656.47
2023-05-01T04:17:25.736Z,100652.94
2023-05-01T04:19:56.299Z,100658.44
2023-05-01T04:22:28.942Z,100646.47
2023-05-01T04:24:59.917Z,100651.97
2023-05-01T04:27:29.901Z,100645.78
2023-05-01T04:29:59.847Z,100634.69
2023-05-01T04:32:30.564Z,100636.13
2023-05-01T04:35:00.292Z,100632.03
2023-05-01T04:37:33.350Z,100634.09
2023-05-01T04:40:04.775Z,100633.56
2023-05-01T04:42:34.678Z,100619.53
2023-05-01T04:45:04.534Z,100624.75
2023-05-01T04:47:38.629Z,100623.78
2023-05-01T04:50:09.713Z,100620.03
2023-05-01T04:52:42.142Z,100618.31
2023-05-01T04:55:13.085Z,100613.13
2023-05-01T04:57:59.530Z,100621.56
2023-05-01T05:00:29.342Z,100618.72
2023-05-01T05:03:00.233Z,100609.72
2023-05-01T05:05:30.038Z,100619.00
2023-05-01T05:08:03.231Z,100616.09
2023-05-01T05:10:42.347Z,100615.16
2023-05-01T05:13:22.720Z,100624.19
2023-05-01T05:16:01.082Z,100621.19
2023-05-01T05:18:31.268Z,100620.63
2023-05-01T05:21:01.166Z,100625.22
2023-05-01T05:23:33.706Z,100620.72
2023-05-01T05:26:04.094Z,100613.63
2023-05-01T05:28:34.522Z,100620.09
2023-05-01T05:31:04.279Z,100614.97
2023-05-01T05:33:34.229Z,100627.31
2023-05-01T05:36:03.994Z,100612.97
2023-05-01T05:38:41.685Z,100612.31
2023-05-01T05:41:14.303Z,100616.13
2023-05-01T05:43:44.825Z,100609.38
2023-05-01T05:46:14.354Z,100605.19
2023-05-01T05:48:45.134Z,100601.16
2023-05-01T05:51:15.153Z,100605.50
2023-05-01T05:53:47.438Z,100605.28
2023-05-01T05:56:17.539Z,100590.22
2023-05-01T05:58:47.957Z,100597.41
2023-05-01T06:01:18.036Z,100597.91
2023-05-01T06:03:47.812Z,100594.53
2023-05-01T06:06:17.613Z,100598.94
2023-05-01T06:08:50.045Z,100595.72
2023-05-01T06:11:21.865Z,100593.34
2023-05-01T06:13:52.003Z,100594.38
2023-05-01T06:16:21.920Z,100585.66
2023-05-01T06:18:51.880Z,100586.56
2023-05-01T06:21:22.206Z,100583.81
2023-05-01T06:23:54.429Z,100589.19
2023-05-01T06:26:27.193Z,100589.38
2023-05-01T06:28:57.412Z,100587.22
2023-05-01T06:31:27.721Z,100576.28
2023-05-01T06:33:58.876Z,100579.75
2023-05-01T06:36:32.864Z,100573.09
2023-05-01T06:39:05.147Z,100575.63
2023-05-01T06:41:36.295Z,100563.84
2023-05-01T06:44:06.145Z,100569.94
2023-05-01T06:46:35.888Z,100554.94
2023-05-01T06:49:05.773Z,100564.13
2023-05-01T06:51:35.375Z,100565.81
2023-05-01T06:54:07.731Z,100557.16
2023-05-01T06:56:37.557Z,100553.22
2023-05-01T06:59:07.196Z,100559.56
2023-05-01T07:01:37.124Z,100567.13
2023-05-01T07:04:07.368Z,100551.63
2023-05-01T07:06:37.481Z,100551.63
2023-05-01T07:09:10.031Z,100547.63
2023-05-01T07:11:40.418Z,100552.22
2023-05-01T07:14:09.969Z,100549.31
2023-05-01T07:16:39.524Z,100542.88
2023-05-01T07:19:09.288Z,100546.09
2023-05-01T07:21:38.982Z,100546.16
2023-05-01T07:24:12.668Z,100545.53
2023-05-01T07:26:42.270Z,100536.09
2023-05-01T07:29:12.080Z,100538.59
2023-05-01T07:31:42.186Z,100537.91
2023-05-01T07:34:11.978Z,100535.88
2023-05-01T07:36:41.741Z,100532.28
2023-05-01T07:39:15.098Z,100535.03
2023-05-01T07:41:44.915Z,100522.66
2023-05-01T07:44:14.433Z,100525.78
2023-05-01T07:46:44.573Z,100529.22
2023-05-01T07:49:14.496Z,100522.03
2023-05-01T07:51:45.913Z,100528.31
2023-05-01T07:54:22.172Z,100515.84
2023-05-01T07:56:52.005Z,100519.59
2023-05-01T07:59:21.818Z,100518.06
2023-05-01T08:01:51.722Z,100507.13
2023-05-01T08:04:23.050Z,100511.56
2023-05-01T08:06:53.461Z,100500.44
2023-05-01T08:09:25.888Z,100506.50
2023-05-01T08:11:55.637Z,100486.69
2023-05-01T08:14:25.529Z,100491.47
2023-05-01T08:16:55.564Z,100499.69
2023-05-01T08:19:25.546Z,100487.63
2023-05-01T08:21:55.362Z,100487.72
2023-05-01T08:24:27.799Z,100494.25
2023-05-01T08:26:58.481Z,100483.81
2023-05-01T08:29:30.028Z,100477.50
2023-05-01T08:32:01.667Z,100481.41
2023-05-01T08:34:31.388Z,100478.69
2023-05-01T08:37:02.127Z,100473.81
2023-05-01T08:39:34.462Z,100476.53
2023-05-01T08:42:04.490Z,100479.03
2023-05-01T08:44:35.417Z,100475.19
2023-05-01T08:47:14.018Z,100482.03
2023-05-01T08:49:44.773Z,100478.78
2023-05-01T08:52:15.954Z,100481.75
2023-05-01T08:54:50.495Z,100475.81
2023-05-01T08:57:20.887Z,100469.81
2023-05-01T08:59:53.629Z,100472.72
2023-05-01T09:02:26.203Z,100461.72
2023-05-01T09:04:56.967Z,100466.09
2023-05-01T09:07:27.543Z,100460.72
2023-05-01T09:09:59.674Z,100464.31
2023-05-01T09:12:29.963Z,100456.38
2023-05-01T09:15:00.134Z,100452.84
2023-05-01T09:17:32.007Z,100447.91
2023-05-01T09:20:06.259Z,100443.19
2023-05-01T09:22:37.183Z,100436.22
2023-05-01T09:25:11.086Z,100436.75
2023-05-01T09:27:41.518Z,100426.13
2023-05-01T09:30:12.269Z,100436.13
2023-05-01T09:32:42.813Z,100430.16
2023-05-01T09:35:14.434Z,100421.59
2023-05-01T09:37:45.221Z,100417.97
2023-05-01T09:40:18.834Z,100414.06
2023-05-01T09:42:55.238Z,100432.16
2023-05-01T09:45:26.875Z,100423.34
2023-05-01T09:48:12.264Z,100419.16
2023-05-01T09:50:42.448Z,100421.84
2023-05-01T09:53:13.317Z,100414.81
2023-05-01T09:55:45.917Z,100410.53
2023-05-01T09:58:30.072Z,100402.91
2023-05-01T10:01:00.605Z,100398.63
2023-05-01T10:03:30.495Z,100413.56
2023-05-01T10:06:02.477Z,100400.81
2023-05-01T10:08:47.249Z,100402.63
2023-05-01T10:11:19.820Z,100404.75
2023-05-01T10:13:49.904Z,100406.69
2023-05-01T10:16:32.258Z,100401.41
2023-05-01T10:19:04.408Z,100379.66
2023-05-01T10:21:35.492Z,100388.53
2023-05-01T10:24:07.544Z,100393.31
2023-05-01T10:26:40.596Z,100398.38
2023-05-01T10:29:11.439Z,100389.97
2023-05-01T10:31:42.623Z,100370.56
2023-05-01T10:34:14.831Z,100369.28
2023-05-01T10:36:49.839Z,100378.03
2023-05-01T10:39:35.102Z,100375.53
2023-05-01T10:42:11.540Z,100367.09
2023-05-01T10:44:41.948Z,100346.38
2023-05-01T10:47:42.936Z,100349.53
2023-05-01T10:50:16.127Z,100351.28
2023-05-01T10:53:16.626Z,100347.28
2023-05-01T10:55:48.191Z,100342.75
2023-05-01T10:58:56.209Z,100328.88
2023-05-01T11:01:34.268Z,100342.31
2023-05-01T11:04:08.485Z,100339.56
2023-05-01T11:06:40.764Z,100332.50
2023-05-01T11:09:41.719Z,100334.81
2023-05-01T11:12:13.017Z,100322.56
2023-05-01T11:15:09.822Z,100315.78
2023-05-01T11:17:49.983Z,100320.56
2023-05-01T11:20:51.375Z,100323.22
2023-05-01T11:23:25.958Z,100320.94
2023-05-01T11:26:09.893Z,100318.34
2023-05-01T11:28:41.356Z,100302.72
2023-05-01T11:31:14.016Z,100298.16
2023-05-01T11:33:43.833Z,100303.16
2023-05-01T11:36:14.327Z,100291.31
2023-05-01T11:38:53.177Z,100294.81
2023-05-01T11:41:24.121Z,100285.50
2023-05-01T11:43:54.536Z,100283.69
2023-05-01T11:46:31.535Z,100287.25
2023-05-01T11:49:03.110Z,100284.16
2023-05-01T11:51:33.542Z,100280.88
2023-05-01T11:54:03.967Z,100275.44
2023-05-01T11:56:34.800Z,100276.66
2023-05-01T11:59:13.604Z,100280.91
2023-05-01T12:01:47.597Z,100274.16
2023-05-01T12:04:29.639Z,100272.44
2023-05-01T12:07:01.995Z,100259.25
2023-05-01T12:09:32.850Z,100262.09
2023-05-01T12:12:03.952Z,100261.41
2023-05-01T12:14:33.953Z,100258.06
2023-05-01T12:17:06.393Z,100269.22
2023-05-01T12:19:37.226Z,100261.97
2023-05-01T12:22:10.049Z,100261.91
2023-05-01T12:24:40.346Z,100256.28
2023-05-01T12:27:10.710Z,100264.00
2023-05-01T12:29:45.125Z,100267.50
2023-05-01T12:32:18.420Z,100271.47
2023-05-01T12:34:48.600Z,100269.88
2023-05-01T12:37:18.282Z,100266.91
2023-05-01T12:39:48.859Z,100263.13
2023-05-01T12:42:21.983Z,100253.25
2023-05-01T12:44:52.412Z,100252.47
2023-05-01T12:47:24.778Z,100256.91
2023-05-01T12:50:05.445Z,100252.03
2023-05-01T12:52:35.650Z,100255.44
2023-05-01T12:55:06.486Z,100247.25
2023-05-01T12:57:39.310Z,100247.31
2023-05-01T13:00:11.173Z,100235.22
2023-05-01T13:02:43.686Z,100237.59
2023-05-01T13:05:15.186Z,100236.34
2023-05-01T13:07:51.397Z,100232.88
2023-05-01T13:10:34.236Z,100224.38
2023-05-01T13:13:04.407Z,100231.25
2023-05-01T13:15:42.173Z,100222.69
2023-05-01T13:18:15.320Z,100229.00
2023-05-01T13:20:45.566Z,100224.50
2023-05-01T13:23:16.046Z,100228.59
2023-05-01T13:25:48.558Z,100221.28
2023-05-01T13:28:21.629Z,100218.81
2023-05-01T13:30:51.431Z,100212.81
2023-05-01T13:33:23.785Z,100217.28
2023-05-01T13:35:53.501Z,100211.78
2023-05-01T13:38:24.832Z,100208.22
2023-05-01T13:40:54.900Z,100213.72
2023-05-01T13:43:24.758Z,100201.66
2023-05-01T13:45:54.388Z,100200.97
2023-05-01T13:48:27.380Z,100209.19
2023-05-01T13:50:56.992Z,100195.59
2023-05-01T13:53:26.727Z,100189.38
2023-05-01T13:55:56.479Z,100194.03
2023-05-01T13:58:27.991Z,100200.16
2023-05-01T14:01:06.738Z,100188.69
2023-05-01T14:03:45.661Z,100197.56
2023-05-01T14:06:18.602Z,100185.63
2023-05-01T14:08:50.256Z,100187.66
2023-05-01T14:11:21.549Z,100189.22
2023-05-01T14:13:55.345Z,100185.88
2023-05-01T14:16:28.037Z,100189.13
2023-05-01T14:19:26.510Z,100184.47
2023-05-01T14:25:32.784Z,100182.56
2023-05-01T14:28:04.595Z,100179.03
2023-05-01T14:30:48.606Z,100173.66
2023-05-01T14:33:24.316Z,100161.78
2023-05-01T14:39:11.799Z,100153.56
2023-05-01T14:42:33.171Z,100166.84
2023-05-01T14:45:04.333Z,100157.06
2023-05-01T14:47:35.689Z,100146.91
2023-05-01T14:50:12.995Z,100151.09
2023-05-01T14:52:43.462Z,100149.00
2023-05-01T14:55:20.764Z,100150.25
2023-05-01T14:57:50.986Z,100148.88
2023-05-01T15:00:22.237Z,100159.78
2023-05-01T15:02:52.854Z,100141.19
2023-05-01T15:05:24.166Z,100156.78
2023-05-01T15:07:54.233Z,100168.38
2023-05-01T15:10:26.904Z,100149.44
2023-05-01T15:12:56.987Z,100164.38
2023-05-01T15:15:27.259Z,100148.28
2023-05-01T15:17:57.610Z,100156.69
2023-05-01T15:20:27.789Z,100145.16
2023-05-01T15:22:58.116Z,100150.72
2023-05-01T15:25:31.444Z,100144.88
2023-05-01T15:28:01.489Z,100145.41
2023-05-01T15:30:33.094Z,100154.22
2023-05-01T15:33:04.368Z,100151.50
2023-05-01T15:35:34.378Z,100144.81
2023-05-01T15:38:04.768Z,100148.72
2023-05-01T15:40:37.260Z,100148.28
2023-05-01T15:43:08.358Z,100153.22
2023-05-01T15:45:43.510Z,100149.06
2023-05-01T15:48:14.180Z,100157.47
2023-05-01T15:50:44.858Z,100154.72
2023-05-01T15:53:17.349Z,100149.13
2023-05-01T15:55:52.086Z,100151.44
2023-05-01T15:58:25.946Z,100143.78
2023-05-01T16:00:56.221Z,100151.84
2023-05-01T16:03:26.722Z,100142.16
2023-05-01T16:05:58.133Z,100145.41
2023-05-01T16:08:28.367Z,100155.59
2023-05-01T16:11:03.315Z,100143.91
2023-05-01T16:13:33.278Z,100146.44
2023-05-01T16:16:05.179Z,100155.97
2023-05-01T16:18:35.057Z,100156.50
2023-05-01T16:21:05.371Z,100145.25
2023-05-01T16:23:35.214Z,100142.34
2023-05-01T16:26:08.319Z,100146.97
2023-05-01T16:28:39.589Z,100145.25
2023-05-01T16:31:26.096Z,100138.41
2023-05-01T16:33:58.055Z,100140.25
2023-05-01T16:36:28.254Z,100141.50
2023-05-01T16:38:58.503Z,100144.34
2023-05-01T16:41:31.550Z,100141.06
2023-05-01T16:44:02.615Z,100150.72
2023-05-01T16:46:33.894Z,100148.63
2023-05-01T16:49:03.856Z,100151.56
2023-05-01T16:51:33.910Z,100151.28
2023-05-01T16:54:03.973Z,100144.16
2023-05-01T16:56:36.642Z,100134.63
2023-05-01T16:59:06.633Z,100135.91
2023-05-01T17:01:38.712Z,100135.88
2023-05-01T17:04:09.159Z,100145.47
2023-05-01T17:06:39.275Z,100140.41
2023-05-01T17:09:09.183Z,100146.94
2023-05-01T17:11:42.122Z,100139.88
2023-05-01T17:14:12.416Z,100146.00
2023-05-01T17:16:42.769Z,100138.28
2023-05-01T17:19:13.593Z,100143.97
2023-05-01T17:21:46.022Z,100141.63
2023-05-01T17:24:15.967Z,100138.41
2023-05-01T17:26:51.750Z,100137.34
2023-05-01T17:29:22.146Z,100141.31
2023-05-01T17:31:53.599Z,100141.63
2023-05-01T17:34:24.810Z,100142.56
2023-05-01T17:36:57.197Z,100145.97
2023-05-01T17:39:28.440Z,100146.66
2023-05-01T17:42:02.955Z,100139.84
2023-05-01T17:44:33.781Z,100146.09
2023-05-01T17:47:04.149Z,100142.34
2023-05-01T17:49:36.312Z,100142.19
2023-05-01T17:52:07.125Z,100142.31
2023-05-01T17:54:37.867Z,100142.44
2023-05-01T17:57:11.254Z,100138.63
2023-05-01T17:59:42.374Z,100154.19
2023-05-01T18:02:13.558Z,100151.50
2023-05-01T18:04:43.458Z,100156.44
2023-05-01T18:07:13.639Z,100156.88
2023-05-01T18:09:43.550Z,100155.53
2023-05-01T18:12:16.472Z,100155.81
2023-05-01T18:14:46.774Z,100150.19
2023-05-01T18:17:17.456Z,100154.72
2023-05-01T18:19:47.810Z,100154.47
2023-05-01T18:22:18.151Z,100155.19
2023-05-01T18:24:48.647Z,100159.91
2023-05-01T18:27:23.859Z,100167.88
2023-05-01T18:29:57.903Z,100167.78
2023-05-01T18:32:39.329Z,100171.81
2023-05-01T18:35:16.802Z,100164.28
2023-05-01T18:37:47.397Z,100168.22
2023-05-01T18:40:17.825Z,100169.47
2023-05-01T18:42:52.551Z,100171.47
2023-05-01T18:45:22.373Z,100178.41
2023-05-01T18:47:54.859Z,100174.22
2023-05-01T18:50:25.863Z,100186.28
2023-05-01T18:52:56.877Z,100188.28
2023-05-01T18:55:28.305Z,100187.34
2023-05-01T18:58:04.149Z,100182.09
2023-05-01T19:00:34.894Z,100177.91
2023-05-01T19:03:05.202Z,100179.59
2023-05-01T19:05:36.092Z,100182.69
2023-05-01T19:08:07.657Z,100182.91
2023-05-01T19:10:37.645Z,100182.22
2023-05-01T19:13:12.261Z,100183.97
2023-05-01T19:15:46.947Z,100189.03
2023-05-01T19:18:18.475Z,100189.56
2023-05-01T19:20:51.395Z,100188.88
2023-05-01T19:23:21.830Z,100194.91
2023-05-01T19:25:53.036Z,100197.09
2023-05-01T19:28:30.265Z,100202.59
2023-05-01T19:31:04.208Z,100187.75
2023-05-01T19:33:36.934Z,100195.34
2023-05-01T19:36:12.370Z,100210.13
2023-05-01T19:38:46.752Z,100194.47
2023-05-01T19:41:17.323Z,100204.97
2023-05-01T19:43:50.342Z,100218.50
2023-05-01T19:46:20.552Z,100220.78
2023-05-01T19:48:50.413Z,100219.63
2023-05-01T19:51:20.266Z,100220.00
2023-05-01T19:53:50.290Z,100239.41
2023-05-01T19:56:21.074Z,100242.19
2023-05-01T19:58:54.440Z,100253.94
2023-05-01T20:01:25.717Z,100269.25
2023-05-01T20:03:56.350Z,100261.22
2023-05-01T20:06:28.037Z,100255.53
2023-05-01T20:08:58.967Z,100252.31
2023-05-01T20:11:30.231Z,100249.84
2023-05-01T20:14:03.726Z,100242.56
2023-05-01T20:16:36.028Z,100238.03
2023-05-01T20:19:06.866Z,100250.72
2023-05-01T20:21:36.693Z,100263.72
2023-05-01T20:24:06.781Z,100252.69
2023-05-01T20:26:36.606Z,100259.63
2023-05-01T20:29:10.491Z,100259.13
2023-05-01T20:31:40.597Z,100267.09
2023-05-01T20:34:10.647Z,100261.50
2023-05-01T20:36:40.820Z,100267.88
2023-05-01T20:39:10.807Z,100263.44
2023-05-01T20:41:41.201Z,100271.31
2023-05-01T20:44:13.958Z,100261.00
2023-05-01T20:46:45.043Z,100264.88
2023-05-01T20:49:16.473Z,100265.22
2023-05-01T20:51:47.716Z,100258.91
2023-05-01T20:54:17.853Z,100261.22
2023-05-01T20:56:47.986Z,100250.97
2023-05-01T20:59:20.857Z,100248.44
2023-05-01T21:01:52.572Z,100257.56
2023-05-01T21:04:23.923Z,100254.00
2023-05-01T21:06:55.962Z,100263.66
2023-05-01T21:09:26.690Z,100257.56
2023-05-01T21:11:56.726Z,100264.38
2023-05-01T21:14:30.631Z,100262.88
2023-05-01T21:17:00.902Z,100262.44
2023-05-01T21:19:30.793Z,100255.03
2023-05-01T21:22:02.996Z,100268.25
2023-05-01T21:24:33.595Z,100264.28
2023-05-01T21:27:04.339Z,100277.97
2023-05-01T21:29:37.520Z,100288.94
2023-05-01T21:32:08.167Z,100294.88
2023-05-01T21:34:38.262Z,100292.13
2023-05-01T21:37:08.259Z,100302.97
2023-05-01T21:39:39.394Z,100313.06
2023-05-01T21:42:13.921Z,100310.63
2023-05-01T21:44:46.937Z,100311.84
2023-05-01T21:47:18.912Z,100291.88
2023-05-01T21:49:49.685Z,100312.88
2023-05-01T21:52:26.012Z,100334.97
2023-05-01T21:54:56.207Z,100327.84
2023-05-01T21:57:26.048Z,100328.56
2023-05-01T21:59:59.660Z,100341.34
2023-05-01T22:02:34.146Z,100331.72
2023-05-01T22:05:04.649Z,100329.97
2023-05-01T22:07:35.885Z,100338.28
2023-05-01T22:10:07.071Z,100337.34
2023-05-01T22:12:37.059Z,100342.75
2023-05-01T22:15:12.789Z,100339.56
2023-05-01T22:17:43.681Z,100337.25
2023-05-01T22:20:14.579Z,100340.63
2023-05-01T22:22:45.534Z,100341.44
2023-05-01T22:25:20.267Z,100339.22
2023-05-01T22:27:51.938Z,100344.63
2023-05-01T22:30:28.394Z,100358.03
2023-05-01T22:32:58.422Z,100362.47
2023-05-01T22:35:28.625Z,100380.81
2023-05-01T22:37:58.438Z,100390.66
2023-05-01T22:40:29.260Z,100390.44
2023-05-01T22:42:59.203Z,100382.91
2023-05-01T22:45:32.354Z,100397.66
2023-05-01T22:48:02.670Z,100408.69
2023-05-01T22:50:32.706Z,100400.22
2023-05-01T22:53:04.931Z,100396.28
2023-05-01T22:55:38.776Z,100398.50
2023-05-01T22:58:10.548Z,100391.72
2023-05-01T23:00:43.301Z,100406.72
2023-05-01T23:03:13.496Z,100411.81
2023-05-01T23:05:45.637Z,100414.16
2023-05-01T23:08:16.648Z,100422.69
2023-05-01T23:10:48.973Z,100405.38
2023-05-01T23:13:23.740Z,100433.13
2023-05-01T23:15:57.708Z,100430.38
2023-05-01T23:18:33.191Z,100427.41
2023-05-01T23:21:03.909Z,100433.00
2023-05-01T23:23:37.646Z,100424.50
2023-05-01T23:26:08.510Z,100431.03
2023-05-01T23:28:44.389Z,100436.47
2023-05-01T23:31:26.024Z,100443.81
2023-05-01T23:33:57.281Z,100435.47
2023-05-01T23:36:29.255Z,100432.69
2023-05-01T23:38:59.554Z,100442.69
2023-05-01T23:41:32.830Z,100447.97
2023-05-01T23:44:03.103Z,100444.78
2023-05-01T23:46:36.034Z,100442.38
2023-05-01T23:49:06.821Z,100443.22
2023-05-01T23:51:37.135Z,100443.25
2023-05-01T23:54:07.575Z,100434.16
2023-05-01T23:56:37.442Z,100442.03
2023-05-01T23:59:10.376Z,100432.50
